Time;durP1;ratioP1;P1;durP2;ratioP2;P2;SDS_P1;SDS_P2;PMS_P1;PMS_P2;Temp;Humidity;BMP_temperature;BMP_pressure;BME280_temperature;BME280_humidity;BME280_pressure;Samples;Min_cycle;Max_cycle;Signal;HPM_P1;HPM_P2
2022/07/30 00:01:42;;;;;;;7.10;4.75;;;;;;;27.39;43.55;99227.09;4463216;32;34007;-65
2022/07/30 00:04:10;;;;;;;9.20;5.20;;;;;;;27.35;43.68;99228.63;4457115;32;32059;-63
2022/07/30 00:06:38;;;;;;;9.82;5.03;;;;;;;27.40;43.62;99231.53;4460988;32;32556;-63
2022/07/30 00:09:06;;;;;;;6.03;4.57;;;;;;;27.60;43.23;99240.25;4455533;32;33814;-65
2022/07/30 00:11:34;;;;;;;7.68;4.35;;;;;;;27.69;43.16;99239.91;4462250;32;33675;-65
2022/07/30 00:14:02;;;;;;;7.90;5.22;;;;;;;27.70;43.10;99239.66;4455967;32;33275;-66
2022/07/30 00:16:29;;;;;;;8.40;4.60;;;;;;;27.96;42.55;99237.53;4454207;32;34551;-65
2022/07/30 00:18:57;;;;;;;8.13;4.45;;;;;;;27.92;42.72;99239.09;4458773;32;33940;-65
2022/07/30 00:21:24;;;;;;;8.55;4.82;;;;;;;27.82;42.89;99231.44;4453291;32;34683;-65
2022/07/30 00:24:07;;;;;;;7.03;4.82;;;;;;;27.90;42.73;99239.34;4454382;32;31766;-66
2022/07/30 00:26:35;;;;;;;7.72;4.93;;;;;;;27.54;43.57;99232.13;4455683;32;33735;-64
2022/07/30 00:29:03;;;;;;;10.15;5.32;;;;;;;27.63;43.36;99231.53;4459474;32;32427;-65
2022/07/30 00:31:31;;;;;;;7.82;5.03;;;;;;;27.55;43.58;99231.91;4455587;32;34897;-65
2022/07/30 00:33:59;;;;;;;7.32;5.20;;;;;;;26.91;45.12;99231.63;4456591;32;33380;-66
2022/07/30 00:36:27;;;;;;;9.65;5.85;;;;;;;26.89;45.21;99227.41;4457542;32;34913;-65
2022/07/30 00:38:55;;;;;;;9.40;5.18;;;;;;;26.32;46.51;99235.09;4459544;32;34085;-64
2022/07/30 00:41:22;;;;;;;8.27;5.35;;;;;;;26.55;45.94;99226.19;4451722;32;33758;-64
2022/07/30 00:43:50;;;;;;;9.30;6.20;;;;;;;26.27;46.68;99222.09;4465153;32;31730;-66
2022/07/30 00:46:18;;;;;;;8.20;5.72;;;;;;;26.36;46.47;99215.22;4456683;32;33695;-65
2022/07/30 00:48:46;;;;;;;7.37;5.20;;;;;;;26.31;46.60;99216.97;4462506;32;32707;-65
2022/07/30 00:51:13;;;;;;;7.87;5.43;;;;;;;26.45;46.10;99221.22;4459806;32;34813;-64
2022/07/30 00:53:41;;;;;;;8.50;5.68;;;;;;;26.13;46.89;99210.44;4453855;32;34438;-63
2022/07/30 00:56:09;;;;;;;6.93;4.78;;;;;;;26.39;46.31;99216.69;4458474;32;32650;-64
2022/07/30 00:58:36;;;;;;;9.05;5.57;;;;;;;26.09;46.91;99217.44;4458617;32;33957;-65
2022/07/30 01:01:05;;;;;;;7.62;5.55;;;;;;;26.09;46.98;99209.19;4457056;32;34640;-64
2022/07/30 01:03:33;;;;;;;9.02;5.28;;;;;;;26.12;46.87;99216.97;4457761;32;33208;-65
2022/07/30 01:06:00;;;;;;;7.30;4.57;;;;;;;26.22;46.71;99216.44;4464533;32;33789;-65
2022/07/30 01:08:28;;;;;;;8.25;4.90;;;;;;;26.39;46.28;99213.94;4458723;32;32640;-65
2022/07/30 01:10:56;;;;;;;9.90;4.85;;;;;;;26.30;46.52;99229.03;4463477;32;33074;-64
2022/07/30 01:13:23;;;;;;;6.55;5.10;;;;;;;26.34;46.40;99230.25;4452668;32;32328;-65
2022/07/30 01:15:51;;;;;;;9.07;5.82;;;;;;;25.99;47.35;99230.84;4452806;32;32696;-64
2022/07/30 01:18:20;;;;;;;8.65;5.12;;;;;;;25.84;47.82;99231.19;4459252;32;33943;-64
2022/07/30 01:21:04;;;;;;;8.38;5.70;;;;;;;25.64;48.44;99222.31;4454108;32;33487;-65
2022/07/30 01:23:40;;;;;;;8.70;6.05;;;;;;;25.73;48.15;99220.97;4451212;32;33111;-64
2022/07/30 01:26:17;;;;;;;10.85;5.72;;;;;;;26.01;47.66;99224.06;4453029;32;34818;-64
2022/07/30 01:28:48;;;;;;;9.13;5.45;;;;;;;26.37;46.76;99222.38;4453357;32;33824;-66
2022/07/30 01:31:16;;;;;;;7.50;5.18;;;;;;;26.35;46.87;99224.50;4456485;32;34947;-66
2022/07/30 01:33:46;;;;;;;8.32;5.15;;;;;;;26.21;47.28;99218.34;4456403;32;33407;-65
2022/07/30 01:36:16;;;;;;;8.18;5.40;;;;;;;26.42;46.72;99232.66;4466787;32;32685;-66
2022/07/30 01:38:45;;;;;;;7.37;5.18;;;;;;;26.20;47.22;99235.88;4453492;32;35349;-65
2022/07/30 01:41:13;;;;;;;8.25;5.45;;;;;;;25.98;47.82;99235.50;4453511;32;33689;-66
2022/07/30 01:43:42;;;;;;;10.10;5.87;;;;;;;26.25;47.19;99227.78;4460410;32;32435;-65
2022/07/30 01:46:11;;;;;;;9.02;5.00;;;;;;;26.43;46.69;99223.37;4446463;32;32540;-64
2022/07/30 01:48:40;;;;;;;7.93;5.68;;;;;;;26.50;46.52;99221.41;4443271;32;33842;-67
2022/07/30 01:51:10;;;;;;;9.05;5.85;;;;;;;26.84;45.72;99219.91;4455561;32;33802;-65
2022/07/30 01:53:40;;;;;;;7.28;5.43;;;;;;;26.33;46.93;99217.59;4452136;32;34932;-63
2022/07/30 01:56:10;;;;;;;8.02;5.45;;;;;;;26.41;46.80;99214.53;4440915;32;35012;-67
2022/07/30 01:58:40;;;;;;;9.15;5.78;;;;;;;26.62;46.37;99208.59;4461513;32;34068;-65
2022/07/30 02:01:08;;;;;;;9.55;6.28;;;;;;;26.25;47.29;99203.09;4468015;32;33461;-63
2022/07/30 02:03:36;;;;;;;8.93;5.78;;;;;;;26.19;47.64;99201.28;4451108;32;34140;-63
2022/07/30 02:06:20;;;;;;;7.30;5.37;;;;;;;26.09;47.94;99192.75;4455567;32;34745;-63
2022/07/30 02:08:53;;;;;;;9.73;5.62;;;;;;;26.09;47.93;99187.25;4456021;32;33939;-65
2022/07/30 02:14:20;;;;;;;17.50;5.60;;;;;;;25.63;49.30;99185.84;4457166;32;33374;-64
2022/07/30 02:16:53;;;;;;;7.55;5.40;;;;;;;25.72;49.15;99179.00;4458978;32;33866;-64
2022/07/30 02:19:23;;;;;;;7.68;4.78;;;;;;;25.89;48.73;99181.19;4464683;32;32523;-66
2022/07/30 02:22:04;;;;;;;8.07;4.93;;;;;;;25.99;48.46;99173.25;4454639;32;34338;-63
2022/07/30 02:24:36;;;;;;;9.20;6.03;;;;;;;25.81;49.01;99160.41;4470054;32;34330;-66
2022/07/30 02:27:13;;;;;;;8.23;6.05;;;;;;;25.91;48.70;99166.19;4465451;32;33811;-65
2022/07/30 02:29:43;;;;;;;8.25;5.05;;;;;;;25.97;48.51;99158.94;4463110;32;34005;-65
2022/07/30 02:32:14;;;;;;;9.82;6.37;;;;;;;25.97;48.56;99151.56;4456857;32;34077;-65
2022/07/30 02:34:42;;;;;;;7.07;5.62;;;;;;;25.58;49.55;99141.84;4454292;32;34738;-65
2022/07/30 02:37:11;;;;;;;15.32;5.12;;;;;;;25.48;49.98;99150.56;4453497;32;34117;-64
2022/07/30 02:39:41;;;;;;;9.32;6.37;;;;;;;25.33;50.12;99144.62;4464953;32;33873;-65
2022/07/30 02:42:11;;;;;;;8.23;5.78;;;;;;;25.49;49.92;99140.44;4456248;32;33967;-64
2022/07/30 02:44:41;;;;;;;8.05;5.22;;;;;;;25.68;49.37;99147.66;4469835;32;33171;-65
2022/07/30 02:47:12;;;;;;;6.35;5.05;;;;;;;25.37;50.19;99145.00;4468091;32;33485;-65
2022/07/30 02:49:42;;;;;;;8.77;4.87;;;;;;;25.68;49.54;99147.66;4454763;32;34314;-66
2022/07/30 02:52:12;;;;;;;9.07;5.68;;;;;;;25.74;49.33;99152.19;4440313;32;34586;-65
2022/07/30 02:54:41;;;;;;;7.07;5.15;;;;;;;25.72;49.35;99145.28;4461432;32;33522;-65
2022/07/30 02:57:09;;;;;;;9.73;6.15;;;;;;;25.67;49.49;99145.94;4454933;32;34767;-63
2022/07/30 02:59:40;;;;;;;7.37;5.93;;;;;;;25.65;49.51;99150.84;4455086;32;32958;-65
2022/07/30 03:02:08;;;;;;;7.75;5.55;;;;;;;25.93;48.78;99153.06;4440938;32;33066;-64
2022/07/30 03:04:37;;;;;;;9.00;5.95;;;;;;;25.60;49.55;99150.66;4440371;32;34263;-65
2022/07/30 03:07:05;;;;;;;12.00;5.65;;;;;;;25.96;48.76;99154.53;4440566;32;33913;-66
2022/07/30 03:09:38;;;;;;;6.32;5.18;;;;;;;26.29;47.81;99145.88;4453497;32;33947;-64
2022/07/30 03:12:20;;;;;;;7.37;5.32;;;;;;;25.92;48.71;99145.09;4448624;32;33922;-65
2022/07/30 03:14:51;;;;;;;8.75;5.80;;;;;;;25.89;48.67;99148.28;4455500;32;34513;-64
2022/07/30 03:17:19;;;;;;;8.60;4.97;;;;;;;26.04;48.43;99148.75;4468807;32;32186;-63
2022/07/30 03:19:47;;;;;;;7.45;5.40;;;;;;;26.41;47.45;99140.44;4455653;32;33997;-65
2022/07/30 03:22:17;;;;;;;7.50;4.87;;;;;;;25.98;48.55;99145.00;4455356;32;34982;-64
2022/07/30 03:24:45;;;;;;;7.57;4.78;;;;;;;25.95;48.66;99144.62;4455988;32;33789;-63
2022/07/30 03:27:15;;;;;;;7.72;5.15;;;;;;;25.59;49.75;99142.69;4459249;32;34946;-63
2022/07/30 03:29:43;;;;;;;7.70;5.82;;;;;;;25.12;51.05;99143.12;4454391;32;32847;-65
2022/07/30 03:32:13;;;;;;;8.23;5.25;;;;;;;24.84;51.87;99141.59;4455016;32;35041;-63
2022/07/30 03:34:42;;;;;;;10.23;5.75;;;;;;;25.39;50.34;99140.13;4454181;32;34200;-62
2022/07/30 03:37:11;;;;;;;7.72;5.87;;;;;;;24.92;51.65;99134.22;4454905;32;34868;-63
2022/07/30 03:39:39;;;;;;;7.28;5.50;;;;;;;24.70;52.28;99144.69;4450774;32;33748;-63
2022/07/30 03:42:07;;;;;;;7.87;5.28;;;;;;;24.73;52.14;99139.59;4452936;32;33762;-63
2022/07/30 03:44:37;;;;;;;6.50;4.53;;;;;;;24.77;52.04;99137.25;4461746;32;33142;-63
2022/07/30 03:47:06;;;;;;;6.40;4.57;;;;;;;24.34;52.99;99144.22;4451696;32;33608;-65
2022/07/30 03:49:36;;;;;;;7.90;5.28;;;;;;;25.06;51.25;99136.59;4459531;32;33327;-66
2022/07/30 03:52:05;;;;;;;9.60;5.55;;;;;;;24.64;52.37;99146.38;4461066;32;35087;-64
2022/07/30 03:54:34;;;;;;;7.53;5.25;;;;;;;25.14;50.97;99140.19;4455565;32;32225;-65
2022/07/30 03:57:03;;;;;;;8.95;5.50;;;;;;;25.03;51.34;99134.31;4458395;32;32737;-64
2022/07/30 03:59:32;;;;;;;5.85;3.67;;;;;;;24.83;51.98;99141.84;4456714;32;34011;-66
2022/07/30 04:02:01;;;;;;;10.15;5.18;;;;;;;25.02;51.55;99145.50;4468754;32;33842;-65
2022/07/30 04:04:35;;;;;;;7.82;5.22;;;;;;;24.94;51.79;99140.28;4469631;32;33549;-65
2022/07/30 04:07:03;;;;;;;7.10;5.00;;;;;;;24.63;52.63;99133.78;4455198;32;33683;-64
2022/07/30 04:09:31;;;;;;;7.07;5.05;;;;;;;24.71;52.56;99138.13;4457275;32;33973;-63
2022/07/30 04:12:05;;;;;;;8.18;4.68;;;;;;;24.80;52.17;99134.06;4466199;32;35423;-64
2022/07/30 04:14:41;;;;;;;7.47;5.15;;;;;;;24.90;51.98;99136.31;4462237;32;34216;-64
2022/07/30 04:17:12;;;;;;;6.68;4.35;;;;;;;24.74;52.47;99141.28;4458937;32;33979;-64
2022/07/30 04:19:45;;;;;;;8.32;5.72;;;;;;;24.19;54.00;99143.66;4468782;32;33993;-65
2022/07/30 04:22:16;;;;;;;8.45;5.72;;;;;;;24.84;52.20;99144.34;4454978;32;34571;-63
2022/07/30 04:24:44;;;;;;;5.90;4.40;;;;;;;24.60;52.58;99147.91;4454474;32;31068;-63
2022/07/30 04:27:11;;;;;;;7.82;4.07;;;;;;;24.83;52.32;99152.78;4441356;32;34998;-66
2022/07/30 04:29:39;;;;;;;8.50;5.00;;;;;;;25.02;51.75;99148.22;4439740;32;34844;-64
2022/07/30 04:32:08;;;;;;;6.37;4.78;;;;;;;24.77;52.50;99148.19;4447928;32;33717;-63
2022/07/30 04:34:46;;;;;;;7.20;4.50;;;;;;;25.05;51.65;99161.47;4467999;32;34566;-63
2022/07/30 04:37:16;;;;;;;8.02;4.30;;;;;;;25.20;51.30;99172.09;4468801;32;33682;-64
2022/07/30 04:39:43;;;;;;;12.02;4.93;;;;;;;25.06;51.59;99163.97;4458587;32;34003;-65
2022/07/30 04:42:11;;;;;;;7.10;4.47;;;;;;;25.08;51.62;99171.97;4468540;32;32721;-62
2022/07/30 04:44:40;;;;;;;7.87;4.97;;;;;;;24.81;52.35;99177.63;4468486;32;34633;-64
2022/07/30 04:47:09;;;;;;;9.10;5.12;;;;;;;24.97;52.12;99167.22;4469143;32;34920;-64
2022/07/30 04:49:39;;;;;;;6.57;4.68;;;;;;;25.33;51.11;99186.56;4469366;32;34197;-63
2022/07/30 04:52:08;;;;;;;7.40;4.85;;;;;;;24.97;52.14;99184.47;4450930;32;34721;-64
2022/07/30 04:54:57;;;;;;;6.55;4.85;;;;;;;25.29;51.24;99185.31;4440156;32;32119;-64
2022/07/30 04:57:25;;;;;;;8.75;5.68;;;;;;;24.99;51.93;99184.25;4443195;32;34835;-63
2022/07/30 04:59:53;;;;;;;7.62;4.93;;;;;;;25.04;51.84;99184.41;4448914;32;33945;-63
2022/07/30 05:02:22;;;;;;;6.97;4.82;;;;;;;25.23;51.50;99182.62;4448053;32;34892;-64
2022/07/30 05:04:51;;;;;;;6.90;5.47;;;;;;;25.22;51.33;99191.91;4436888;32;33468;-63
2022/07/30 05:07:20;;;;;;;6.85;4.45;;;;;;;25.58;50.46;99188.41;4434325;32;33677;-64
2022/07/30 05:09:49;;;;;;;8.75;5.35;;;;;;;25.44;50.86;99204.16;4436152;32;34316;-63
2022/07/30 05:12:17;;;;;;;7.62;4.62;;;;;;;25.58;50.38;99202.13;4448414;32;34652;-64
2022/07/30 05:14:44;;;;;;;8.35;5.32;;;;;;;25.38;50.93;99204.19;4449250;32;31699;-64
2022/07/30 05:17:15;;;;;;;7.30;4.60;;;;;;;25.68;49.96;99198.84;4445870;32;33761;-64
2022/07/30 05:19:43;;;;;;;6.87;4.53;;;;;;;25.49;50.44;99196.09;4448609;32;34010;-64
2022/07/30 05:22:10;;;;;;;7.75;4.82;;;;;;;25.70;49.99;99197.56;4448229;32;33329;-65
2022/07/30 05:24:39;;;;;;;8.05;5.07;;;;;;;25.57;50.33;99200.44;4447535;32;33320;-63
2022/07/30 05:27:07;;;;;;;6.68;4.93;;;;;;;25.90;49.67;99199.28;4448390;32;33766;-64
2022/07/30 05:29:35;;;;;;;6.80;4.75;;;;;;;25.87;50.01;99199.75;4449775;32;33505;-63
2022/07/30 05:32:06;;;;;;;7.00;4.72;;;;;;;26.19;49.16;99197.69;4447629;32;34759;-63
2022/07/30 05:34:34;;;;;;;6.25;4.07;;;;;;;25.63;50.45;99196.81;4449846;32;33107;-64
2022/07/30 05:37:02;;;;;;;8.05;4.68;;;;;;;25.78;49.81;99193.72;4450882;32;34949;-64
2022/07/30 05:39:31;;;;;;;8.63;5.05;;;;;;;25.58;50.70;99195.81;4447926;32;34820;-63
2022/07/30 05:42:00;;;;;;;6.37;4.68;;;;;;;25.56;50.86;99198.78;4448949;32;34981;-63
2022/07/30 05:44:28;;;;;;;6.62;4.95;;;;;;;25.26;51.44;99191.22;4448325;32;33178;-62
2022/07/30 05:46:55;;;;;;;7.30;4.85;;;;;;;25.06;52.34;99193.25;4447365;32;34948;-63
2022/07/30 05:49:23;;;;;;;6.80;5.20;;;;;;;25.18;52.07;99204.38;4446859;32;33926;-63
2022/07/30 05:51:51;;;;;;;8.65;4.90;;;;;;;24.81;52.80;99199.53;4448346;32;35072;-65
2022/07/30 05:54:19;;;;;;;7.45;4.62;;;;;;;25.38;51.58;99206.94;4455186;32;33431;-65
2022/07/30 05:56:50;;;;;;;9.18;4.87;;;;;;;25.43;51.43;99212.59;4467699;32;33783;-65
2022/07/30 05:59:19;;;;;;;7.53;5.18;;;;;;;24.97;52.36;99206.38;4454294;32;34163;-65
2022/07/30 06:01:48;;;;;;;7.40;5.10;;;;;;;24.71;53.40;99201.91;4445602;32;33514;-65
2022/07/30 06:04:16;;;;;;;7.90;5.35;;;;;;;25.09;52.35;99203.78;4450446;32;32315;-65
2022/07/30 06:06:44;;;;;;;10.18;5.22;;;;;;;25.59;51.11;99217.50;4449178;32;33942;-64
2022/07/30 06:09:12;;;;;;;8.63;4.55;;;;;;;25.23;51.94;99210.88;4441720;32;34011;-64
2022/07/30 06:11:40;;;;;;;8.63;4.90;;;;;;;25.40;51.48;99219.38;4449729;32;33980;-65
2022/07/30 06:14:08;;;;;;;7.62;5.50;;;;;;;25.12;51.90;99224.41;4451427;32;32323;-64
2022/07/30 06:16:36;;;;;;;8.38;4.72;;;;;;;25.27;51.78;99225.78;4450162;32;34883;-66
2022/07/30 06:19:05;;;;;;;8.93;5.37;;;;;;;25.39;51.49;99227.78;4450469;32;35414;-65
2022/07/30 06:21:34;;;;;;;6.75;4.50;;;;;;;25.53;51.00;99227.47;4449724;32;32843;-64
2022/07/30 06:24:22;;;;;;;7.07;4.60;;;;;;;25.47;51.18;99219.31;4449856;32;34041;-65
2022/07/30 06:26:56;;;;;;;7.33;4.70;;;;;;;25.38;51.87;99232.44;4449150;32;33388;-65
2022/07/30 06:29:24;;;;;;;6.53;4.40;;;;;;;25.74;50.85;99226.19;4451788;32;33888;-64
2022/07/30 06:31:52;;;;;;;7.75;5.00;;;;;;;26.16;49.31;99223.69;4448854;32;34005;-63
2022/07/30 06:34:20;;;;;;;9.10;5.07;;;;;;;26.02;49.74;99233.97;4449158;32;33589;-64
2022/07/30 06:36:48;;;;;;;7.22;4.60;;;;;;;26.00;49.93;99235.25;4451308;32;34875;-64
2022/07/30 06:39:17;;;;;;;7.68;5.12;;;;;;;26.12;49.76;99238.09;4450423;32;34099;-64
2022/07/30 06:42:06;;;;;;;7.20;4.85;;;;;;;26.08;49.59;99234.97;4439705;32;35094;-64
2022/07/30 06:44:37;;;;;;;8.35;5.07;;;;;;;25.46;51.64;99243.12;4451825;32;34835;-63
2022/07/30 06:47:06;;;;;;;9.13;4.90;;;;;;;25.95;50.40;99230.47;4451266;32;32164;-63
2022/07/30 06:49:35;;;;;;;7.60;4.50;;;;;;;26.35;49.25;99232.72;4435558;32;33819;-64
2022/07/30 06:52:03;;;;;;;7.43;5.25;;;;;;;26.38;49.52;99235.03;4450717;32;32184;-64
2022/07/30 06:54:32;;;;;;;6.97;4.60;;;;;;;26.49;49.35;99236.22;4447307;32;33108;-64
2022/07/30 06:57:03;;;;;;;7.43;4.90;;;;;;;26.40;49.78;99234.81;4447948;32;32080;-64
2022/07/30 06:59:31;;;;;;;9.90;5.40;;;;;;;26.20;50.25;99221.34;4451627;32;35800;-63
2022/07/30 07:02:19;;;;;;;7.03;4.35;;;;;;;26.39;49.58;99227.66;4447035;32;33909;-64
2022/07/30 07:04:47;;;;;;;7.40;5.05;;;;;;;26.41;50.02;99220.00;4447680;32;33019;-64
2022/07/30 07:07:15;;;;;;;8.13;5.22;;;;;;;26.86;48.29;99225.97;4447865;32;34261;-65
2022/07/30 07:10:04;;;;;;;10.27;6.55;;;;;;;26.95;48.79;99215.50;4450144;32;35011;-64
2022/07/30 07:12:34;;;;;;;7.55;5.22;;;;;;;27.15;48.25;99218.81;4449288;32;35137;-63
2022/07/30 07:15:02;;;;;;;7.47;4.82;;;;;;;27.23;48.26;99222.31;4447755;32;36669;-64
2022/07/30 07:17:30;;;;;;;8.05;5.05;;;;;;;27.37;47.45;99221.84;4447631;32;33860;-65
2022/07/30 07:20:00;;;;;;;9.52;5.70;;;;;;;27.83;46.95;99214.72;4447774;32;34037;-63
2022/07/30 07:22:30;;;;;;;8.98;4.78;;;;;;;27.92;46.03;99209.69;4448286;32;34768;-66
2022/07/30 07:24:58;;;;;;;8.32;5.12;;;;;;;27.71;46.60;99202.03;4448682;32;37006;-66
2022/07/30 07:27:25;;;;;;;8.48;5.00;;;;;;;27.09;47.54;99203.22;4449777;32;34489;-65
2022/07/30 07:29:54;;;;;;;7.37;5.37;;;;;;;27.18;48.12;99195.53;4451000;32;33912;-64
2022/07/30 07:32:33;;;;;;;10.05;5.35;;;;;;;27.66;46.96;99199.16;4447523;32;130859;-64
2022/07/30 07:35:02;;;;;;;8.18;5.20;;;;;;;27.76;46.47;99213.12;4448403;32;33071;-63
2022/07/30 07:37:30;;;;;;;8.43;4.90;;;;;;;27.56;46.61;99217.06;4454166;32;34959;-67
2022/07/30 07:39:58;;;;;;;9.25;5.03;;;;;;;27.58;46.39;99236.94;4448028;32;35202;-64
2022/07/30 07:42:26;;;;;;;9.02;5.10;;;;;;;27.48;46.39;99231.19;4448548;32;34585;-63
2022/07/30 07:44:54;;;;;;;10.18;5.50;;;;;;;27.12;47.17;99234.88;4448128;32;31849;-64
2022/07/30 07:47:22;;;;;;;10.05;5.37;;;;;;;27.12;47.68;99234.88;4451164;32;33417;-66
2022/07/30 07:49:55;;;;;;;9.38;5.65;;;;;;;27.26;47.74;99243.81;4447515;32;34364;-65
2022/07/30 07:52:23;;;;;;;8.65;5.18;;;;;;;27.38;47.06;99237.28;4449038;32;33286;-65
2022/07/30 07:54:51;;;;;;;8.25;5.80;;;;;;;27.62;46.70;99240.88;4448886;32;32150;-64
2022/07/30 07:57:18;;;;;;;6.95;4.87;;;;;;;27.55;46.53;99251.16;4449556;32;33723;-66
2022/07/30 07:59:47;;;;;;;9.52;5.07;;;;;;;27.96;46.06;99245.78;4449333;32;33955;-64
2022/07/30 08:02:17;;;;;;;7.65;5.40;;;;;;;27.91;46.34;99243.78;4448313;32;35375;-65
2022/07/30 08:04:45;;;;;;;10.20;5.37;;;;;;;28.12;44.86;99253.31;4463003;32;34028;-65
2022/07/30 08:07:14;;;;;;;6.95;5.00;;;;;;;28.27;44.79;99259.16;4448668;32;33747;-64
2022/07/30 08:09:44;;;;;;;8.52;5.50;;;;;;;28.39;44.40;99253.63;4452202;32;36210;-68
2022/07/30 08:12:13;;;;;;;8.07;5.25;;;;;;;28.01;45.08;99260.50;4450561;32;33734;-69
2022/07/30 08:14:43;;;;;;;7.20;4.82;;;;;;;28.12;45.42;99257.97;4450115;32;33381;-68
2022/07/30 08:17:13;;;;;;;8.18;5.20;;;;;;;28.18;46.60;99263.34;4449657;32;33794;-67
2022/07/30 08:19:44;;;;;;;9.60;5.32;;;;;;;28.22;46.17;99264.56;4449970;32;33817;-65
2022/07/30 08:22:15;;;;;;;7.05;4.80;;;;;;;28.40;45.73;99271.84;4450105;32;34167;-64
2022/07/30 08:24:43;;;;;;;7.70;5.12;;;;;;;28.41;45.28;99264.41;4450048;32;33441;-67
2022/07/30 08:27:10;;;;;;;8.80;5.65;;;;;;;28.62;44.52;99262.94;4449735;32;34434;-63
2022/07/30 08:29:38;;;;;;;10.27;5.32;;;;;;;28.65;44.14;99265.22;4449160;32;34030;-65
2022/07/30 08:32:06;;;;;;;7.65;5.00;;;;;;;28.71;44.23;99267.00;4449879;32;34871;-67
2022/07/30 08:34:34;;;;;;;10.90;5.68;;;;;;;28.58;45.55;99272.78;4450830;32;31637;-64
2022/07/30 08:37:02;;;;;;;6.95;5.18;;;;;;;28.57;47.42;99282.94;4453642;32;33840;-67
2022/07/30 08:39:30;;;;;;;11.40;6.78;;;;;;;28.65;47.07;99278.97;4449845;32;33923;-65
2022/07/30 08:41:59;;;;;;;9.43;6.12;;;;;;;28.87;47.37;99282.72;4455134;32;33793;-66
2022/07/30 08:44:27;;;;;;;9.05;5.40;;;;;;;28.51;48.59;99278.41;4452302;32;31997;-64
2022/07/30 08:46:56;;;;;;;8.63;5.80;;;;;;;28.64;47.99;99277.31;4451150;32;34695;-64
2022/07/30 08:49:24;;;;;;;7.68;5.97;;;;;;;28.46;48.59;99284.63;4435665;32;33939;-64
2022/07/30 08:51:51;;;;;;;10.23;6.43;;;;;;;28.71;47.59;99278.00;4434606;32;33876;-63
2022/07/30 08:54:20;;;;;;;8.43;5.97;;;;;;;28.55;48.19;99285.09;4435570;32;31895;-65
2022/07/30 08:56:48;;;;;;;9.05;5.90;;;;;;;28.62;48.06;99290.47;4435547;32;34891;-65
2022/07/30 08:59:16;;;;;;;7.10;5.25;;;;;;;28.03;49.93;99290.53;4433528;32;32838;-63
2022/07/30 09:01:44;;;;;;;8.23;6.00;;;;;;;28.19;49.71;99295.31;4450736;32;32678;-64
2022/07/30 09:04:13;;;;;;;7.75;6.15;;;;;;;27.87;50.39;99289.34;4449722;32;34209;-64
2022/07/30 09:06:40;;;;;;;8.60;6.22;;;;;;;27.38;51.46;99297.72;4448365;32;35232;-63
2022/07/30 09:09:09;;;;;;;8.80;6.60;;;;;;;27.52;51.11;99295.59;4452148;32;33844;-64
2022/07/30 09:11:37;;;;;;;9.25;7.37;;;;;;;27.38;51.68;99302.34;4448557;32;32862;-63
2022/07/30 09:14:12;;;;;;;9.80;7.97;;;;;;;27.53;51.18;99297.25;4452122;32;34750;-65
2022/07/30 09:16:42;;;;;;;8.85;7.05;;;;;;;27.43;51.38;99291.50;4452391;32;32222;-64
2022/07/30 09:19:12;;;;;;;9.98;7.82;;;;;;;27.09;52.05;99287.53;4451891;32;33889;-67
2022/07/30 09:21:40;;;;;;;9.75;7.37;;;;;;;26.51;54.01;99285.34;4447945;32;33882;-66
2022/07/30 09:24:11;;;;;;;10.85;7.95;;;;;;;26.23;54.18;99273.81;4447980;32;34185;-65
2022/07/30 09:26:56;;;;;;;11.40;8.07;;;;;;;26.29;53.51;99284.94;4434301;32;33678;-65
2022/07/30 09:29:31;;;;;;;9.57;8.00;;;;;;;26.09;54.00;99279.66;4457636;32;32669;-66
2022/07/30 09:32:14;;;;;;;10.98;8.18;;;;;;;25.98;54.58;99289.50;4448620;32;35837;-65
2022/07/30 09:34:49;;;;;;;12.40;8.30;;;;;;;26.04;54.37;99285.00;4449210;32;31078;-64
2022/07/30 09:37:18;;;;;;;10.07;8.18;;;;;;;26.10;54.52;99297.78;4448707;32;35053;-64
2022/07/30 09:39:48;;;;;;;10.40;7.90;;;;;;;26.17;54.67;99313.13;4447416;32;32698;-63
2022/07/30 09:42:27;;;;;;;16.50;9.90;;;;;;;26.24;54.37;99330.34;4454898;32;32748;-64
2022/07/30 09:45:14;;;;;;;17.52;10.18;;;;;;;26.15;56.03;99356.41;4443788;32;32071;-64
2022/07/30 09:47:44;;;;;;;18.10;10.38;;;;;;;25.89;58.15;99362.13;4457264;32;34170;-65
2022/07/30 09:50:13;;;;;;;16.80;10.60;;;;;;;25.76;58.54;99316.44;4456844;32;35014;-63
2022/07/30 09:53:08;;;;;;;11.02;6.90;;;;;;;24.64;61.66;99286.75;4454518;32;32739;-67
2022/07/30 09:55:37;;;;;;;18.02;11.00;;;;;;;25.49;59.25;99274.69;4460179;32;33545;-64
2022/07/30 09:58:09;;;;;;;15.73;9.80;;;;;;;26.00;58.31;99279.13;4460878;32;33866;-67
2022/07/30 10:00:43;;;;;;;15.57;9.57;;;;;;;25.81;58.81;99286.50;4470467;32;32997;-66
2022/07/30 10:03:17;;;;;;;15.07;9.23;;;;;;;25.58;59.48;99270.63;4468296;32;34377;-64
2022/07/30 10:06:32;;;;;;;13.62;10.15;;;;;;;25.70;58.98;99278.97;4457600;32;33402;-65
2022/07/30 10:09:00;;;;;;;11.20;9.50;;;;;;;26.05;57.80;99267.50;4462266;32;34816;-64
2022/07/30 10:11:40;;;;;;;19.85;11.52;;;;;;;25.95;58.07;99270.75;4467177;32;32972;-64
2022/07/30 10:14:09;;;;;;;10.77;8.50;;;;;;;26.28;57.59;99278.63;4458878;32;34886;-65
2022/07/30 10:16:36;;;;;;;14.02;9.27;;;;;;;26.42;56.84;99280.16;4453230;32;32902;-66
2022/07/30 10:19:05;;;;;;;12.88;9.40;;;;;;;26.58;56.41;99292.47;4447001;32;33931;-67
2022/07/30 10:21:42;;;;;;;12.50;9.45;;;;;;;26.65;56.63;99293.22;4444788;32;33996;-67
2022/07/30 10:24:16;;;;;;;14.18;9.95;;;;;;;26.46;56.90;99289.59;4445515;32;32836;-66
2022/07/30 10:26:56;;;;;;;10.98;9.23;;;;;;;26.75;56.61;99294.56;4465603;32;34470;-63
2022/07/30 10:29:26;;;;;;;11.75;9.13;;;;;;;26.88;56.47;99299.87;4453956;32;34766;-63
2022/07/30 10:32:01;;;;;;;13.30;9.88;;;;;;;26.84;56.23;99302.25;4458615;32;35251;-66
2022/07/30 10:34:29;;;;;;;13.50;10.05;;;;;;;26.86;56.19;99302.00;4455239;32;33768;-66
2022/07/30 10:37:03;;;;;;;12.45;9.30;;;;;;;26.74;56.51;99304.69;4465861;32;33115;-64
2022/07/30 10:39:42;;;;;;;12.57;9.25;;;;;;;26.89;56.04;99307.87;4444457;32;33963;-65
2022/07/30 10:42:56;;;;;;;14.27;10.30;;;;;;;26.84;56.21;99310.50;4441415;32;33635;-67
2022/07/30 10:46:01;;;;;;;12.63;9.43;;;;;;;26.69;57.17;99307.31;4455003;32;33717;-67
2022/07/30 10:48:33;;;;;;;14.55;10.48;;;;;;;26.84;56.90;99302.25;4444260;32;32761;-64
2022/07/30 10:51:01;;;;;;;11.43;8.93;;;;;;;26.81;56.87;99304.62;4442337;32;33632;-68
2022/07/30 10:53:44;;;;;;;13.00;10.02;;;;;;;27.03;56.54;99305.81;4461390;32;33925;-64
2022/07/30 10:56:24;;;;;;;15.55;9.98;;;;;;;26.67;57.53;99302.03;4459189;32;32724;-65
2022/07/30 10:59:10;;;;;;;11.82;9.35;;;;;;;27.13;56.60;99300.63;4466608;32;34619;-65
2022/07/30 11:01:47;;;;;;;11.90;9.77;;;;;;;27.25;56.22;99292.41;4456474;32;34876;-64
2022/07/30 11:04:27;;;;;;;15.00;10.55;;;;;;;27.09;56.85;99288.38;4469151;32;32631;-64
2022/07/30 11:07:21;;;;;;;12.00;10.70;;;;;;;27.16;56.61;99282.84;4457341;32;33861;-63
2022/07/30 11:09:51;;;;;;;10.77;9.65;;;;;;;26.82;57.99;99274.19;4454140;32;33073;-64
2022/07/30 11:12:41;;;;;;;14.82;10.68;;;;;;;26.81;58.23;99264.28;4456656;32;34895;-64
2022/07/30 11:15:12;;;;;;;10.93;8.80;;;;;;;26.67;59.30;99257.28;4456084;32;33581;-63
2022/07/30 11:18:08;;;;;;;9.05;6.97;;;;;;;26.56;59.99;99253.41;4463332;32;33904;-64
2022/07/30 11:20:40;;;;;;;9.10;7.25;;;;;;;25.49;62.87;99244.56;4454016;32;33028;-64
2022/07/30 11:23:18;;;;;;;10.82;6.72;;;;;;;26.16;60.48;99245.66;4455525;32;32462;-66
2022/07/30 11:25:46;;;;;;;10.40;6.93;;;;;;;25.79;62.42;99231.03;4454017;32;32905;-65
2022/07/30 11:28:41;;;;;;;10.23;6.80;;;;;;;25.98;61.76;99227.25;4460265;32;33917;-65
2022/07/30 11:31:30;;;;;;;11.35;7.50;;;;;;;26.18;61.63;99228.94;4461163;32;34425;-62
2022/07/30 11:34:18;;;;;;;8.23;6.20;;;;;;;26.44;60.87;99231.34;4457884;32;32869;-65
2022/07/30 11:37:05;;;;;;;10.00;7.45;;;;;;;26.30;60.98;99238.09;4461301;32;35259;-67
2022/07/30 11:39:55;;;;;;;11.10;7.47;;;;;;;26.29;61.60;99230.91;4467779;32;32595;-66
2022/07/30 11:42:36;;;;;;;10.45;7.45;;;;;;;25.95;62.71;99227.72;4454226;32;33410;-64
2022/07/30 11:45:16;;;;;;;8.13;6.78;;;;;;;25.82;63.09;99227.03;4452284;32;35231;-63
2022/07/30 11:47:49;;;;;;;12.02;8.68;;;;;;;26.37;62.60;99227.03;4469208;32;34175;-64
2022/07/30 11:50:23;;;;;;;9.25;8.23;;;;;;;26.08;64.14;99221.25;4469388;32;33998;-64
2022/07/30 11:53:04;;;;;;;9.43;8.43;;;;;;;26.18;62.62;99221.53;4464817;32;32237;-67
2022/07/30 11:55:33;;;;;;;9.45;6.62;;;;;;;26.32;62.31;99219.47;4467307;32;34008;-64